sensor_id;sensor_type;location;lat;lon;timestamp;temperature;humidity
27896;DHT22;15241;48.374;10.876;2023-08-12T00:03:06;21.70;99.90
27896;DHT22;15241;48.374;10.876;2023-08-12T00:08:23;21.60;99.90
27896;DHT22;15241;48.374;10.876;2023-08-12T00:13:41;21.50;99.90
27896;DHT22;15241;48.374;10.876;2023-08-12T00:18:58;21.50;99.90
27896;DHT22;15241;48.374;10.876;2023-08-12T00:24:16;21.40;99.90
27896;DHT22;15241;48.374;10.876;2023-08-12T00:29:33;21.30;99.90
27896;DHT22;15241;48.374;10.876;2023-08-12T00:34:50;21.30;99.90
27896;DHT22;15241;48.374;10.876;2023-08-12T00:40:10;21.20;99.90
27896;DHT22;15241;48.374;10.876;2023-08-12T00:45:28;21.10;99.90
27896;DHT22;15241;48.374;10.876;2023-08-12T00:50:46;21.10;99.90
27896;DHT22;15241;48.374;10.876;2023-08-12T00:56:04;21.00;99.90
27896;DHT22;15241;48.374;10.876;2023-08-12T01:01:22;20.90;99.90
27896;DHT22;15241;48.374;10.876;2023-08-12T01:06:39;20.90;99.90
27896;DHT22;15241;48.374;10.876;2023-08-12T01:11:59;20.90;99.90
27896;DHT22;15241;48.374;10.876;2023-08-12T01:17:17;20.80;99.90
27896;DHT22;15241;48.374;10.876;2023-08-12T01:22:35;20.80;99.90
27896;DHT22;15241;48.374;10.876;2023-08-12T01:27:53;20.80;99.90
27896;DHT22;15241;48.374;10.876;2023-08-12T01:33:14;20.70;99.90
27896;DHT22;15241;48.374;10.876;2023-08-12T01:38:32;20.60;99.90
27896;DHT22;15241;48.374;10.876;2023-08-12T01:43:50;20.60;99.90
27896;DHT22;15241;48.374;10.876;2023-08-12T01:49:07;20.60;99.90
27896;DHT22;15241;48.374;10.876;2023-08-12T01:54:25;20.50;99.90
27896;DHT22;15241;48.374;10.876;2023-08-12T01:59:42;20.50;99.90
27896;DHT22;15241;48.374;10.876;2023-08-12T02:05:00;20.40;99.90
27896;DHT22;15241;48.374;10.876;2023-08-12T02:10:17;20.30;99.90
27896;DHT22;15241;48.374;10.876;2023-08-12T02:15:35;20.30;99.90
27896;DHT22;15241;48.374;10.876;2023-08-12T02:20:52;20.20;99.90
27896;DHT22;15241;48.374;10.876;2023-08-12T02:26:10;20.20;99.90
27896;DHT22;15241;48.374;10.876;2023-08-12T02:31:27;20.20;99.90
27896;DHT22;15241;48.374;10.876;2023-08-12T02:36:44;20.20;99.90
27896;DHT22;15241;48.374;10.876;2023-08-12T02:42:02;20.10;99.90
27896;DHT22;15241;48.374;10.876;2023-08-12T02:47:19;20.10;99.90
27896;DHT22;15241;48.374;10.876;2023-08-12T02:52:37;20.10;99.90
27896;DHT22;15241;48.374;10.876;2023-08-12T02:57:55;20.00;99.90
27896;DHT22;15241;48.374;10.876;2023-08-12T03:03:12;19.90;99.90
27896;DHT22;15241;48.374;10.876;2023-08-12T03:08:29;19.90;99.90
27896;DHT22;15241;48.374;10.876;2023-08-12T03:13:47;20.00;99.90
27896;DHT22;15241;48.374;10.876;2023-08-12T03:19:05;20.00;99.90
27896;DHT22;15241;48.374;10.876;2023-08-12T03:24:22;19.90;99.90
27896;DHT22;15241;48.374;10.876;2023-08-12T03:29:40;19.90;99.90
27896;DHT22;15241;48.374;10.876;2023-08-12T03:34:58;19.80;99.90
27896;DHT22;15241;48.374;10.876;2023-08-12T03:40:15;19.70;99.90
27896;DHT22;15241;48.374;10.876;2023-08-12T03:45:33;19.70;99.90
27896;DHT22;15241;48.374;10.876;2023-08-12T03:50:50;19.60;99.90
27896;DHT22;15241;48.374;10.876;2023-08-12T03:56:08;19.50;99.90
27896;DHT22;15241;48.374;10.876;2023-08-12T04:01:25;19.50;99.90
27896;DHT22;15241;48.374;10.876;2023-08-12T04:06:43;19.40;99.90
27896;DHT22;15241;48.374;10.876;2023-08-12T04:12:00;19.30;99.90
27896;DHT22;15241;48.374;10.876;2023-08-12T04:17:18;19.30;99.90
27896;DHT22;15241;48.374;10.876;2023-08-12T04:22:36;19.20;99.90
27896;DHT22;15241;48.374;10.876;2023-08-12T04:27:53;19.20;99.90
27896;DHT22;15241;48.374;10.876;2023-08-12T04:33:11;19.20;99.90
27896;DHT22;15241;48.374;10.876;2023-08-12T04:38:29;19.30;99.90
27896;DHT22;15241;48.374;10.876;2023-08-12T04:43:46;19.30;99.90
27896;DHT22;15241;48.374;10.876;2023-08-12T04:49:04;19.40;99.90
27896;DHT22;15241;48.374;10.876;2023-08-12T04:54:21;19.40;99.90
27896;DHT22;15241;48.374;10.876;2023-08-12T04:59:39;19.50;99.90
27896;DHT22;15241;48.374;10.876;2023-08-12T05:04:56;19.40;99.90
27896;DHT22;15241;48.374;10.876;2023-08-12T05:10:14;19.50;99.90
27896;DHT22;15241;48.374;10.876;2023-08-12T05:15:31;19.50;99.90
27896;DHT22;15241;48.374;10.876;2023-08-12T05:20:49;19.60;99.90
27896;DHT22;15241;48.374;10.876;2023-08-12T05:26:07;19.50;99.90
27896;DHT22;15241;48.374;10.876;2023-08-12T05:31:24;19.50;99.90
27896;DHT22;15241;48.374;10.876;2023-08-12T05:36:42;19.70;99.90
27896;DHT22;15241;48.374;10.876;2023-08-12T05:41:59;19.80;99.90
27896;DHT22;15241;48.374;10.876;2023-08-12T05:47:16;20.10;99.90
27896;DHT22;15241;48.374;10.876;2023-08-12T05:52:34;20.10;99.90
27896;DHT22;15241;48.374;10.876;2023-08-12T05:57:52;20.20;99.90
27896;DHT22;15241;48.374;10.876;2023-08-12T06:03:09;20.30;99.90
27896;DHT22;15241;48.374;10.876;2023-08-12T06:08:27;20.60;99.90
27896;DHT22;15241;48.374;10.876;2023-08-12T06:13:45;20.60;99.90
27896;DHT22;15241;48.374;10.876;2023-08-12T06:19:03;20.70;99.90
27896;DHT22;15241;48.374;10.876;2023-08-12T06:24:21;20.90;99.90
27896;DHT22;15241;48.374;10.876;2023-08-12T06:29:39;21.20;99.90
27896;DHT22;15241;48.374;10.876;2023-08-12T06:34:56;21.50;99.90
27896;DHT22;15241;48.374;10.876;2023-08-12T06:40:14;21.80;99.90
27896;DHT22;15241;48.374;10.876;2023-08-12T06:45:31;22.00;99.90
27896;DHT22;15241;48.374;10.876;2023-08-12T06:50:54;22.30;99.90
27896;DHT22;15241;48.374;10.876;2023-08-12T06:56:12;22.70;99.90
27896;DHT22;15241;48.374;10.876;2023-08-12T07:01:29;22.90;99.90
27896;DHT22;15241;48.374;10.876;2023-08-12T07:06:47;23.20;99.90
27896;DHT22;15241;48.374;10.876;2023-08-12T07:12:06;23.30;99.90
27896;DHT22;15241;48.374;10.876;2023-08-12T07:17:23;23.40;99.90
27896;DHT22;15241;48.374;10.876;2023-08-12T07:22:40;23.70;99.90
27896;DHT22;15241;48.374;10.876;2023-08-12T07:27:58;24.00;99.90
27896;DHT22;15241;48.374;10.876;2023-08-12T07:33:16;24.30;99.90
27896;DHT22;15241;48.374;10.876;2023-08-12T07:38:33;24.60;99.90
27896;DHT22;15241;48.374;10.876;2023-08-12T07:43:51;24.80;99.90
27896;DHT22;15241;48.374;10.876;2023-08-12T07:49:08;25.20;99.90
27896;DHT22;15241;48.374;10.876;2023-08-12T07:54:26;25.40;99.90
27896;DHT22;15241;48.374;10.876;2023-08-12T07:59:43;25.60;99.90
27896;DHT22;15241;48.374;10.876;2023-08-12T08:05:01;25.80;99.90
27896;DHT22;15241;48.374;10.876;2023-08-12T08:10:19;25.90;99.90
27896;DHT22;15241;48.374;10.876;2023-08-12T08:15:37;26.20;99.90
27896;DHT22;15241;48.374;10.876;2023-08-12T08:20:54;26.40;99.90
27896;DHT22;15241;48.374;10.876;2023-08-12T08:26:11;26.60;99.90
27896;DHT22;15241;48.374;10.876;2023-08-12T08:31:29;26.80;99.90
27896;DHT22;15241;48.374;10.876;2023-08-12T08:36:46;26.80;99.90
27896;DHT22;15241;48.374;10.876;2023-08-12T08:42:06;26.90;99.90
27896;DHT22;15241;48.374;10.876;2023-08-12T08:47:25;27.00;99.90
27896;DHT22;15241;48.374;10.876;2023-08-12T08:52:43;27.00;99.90
27896;DHT22;15241;48.374;10.876;2023-08-12T08:58:00;27.10;99.90
27896;DHT22;15241;48.374;10.876;2023-08-12T09:03:18;27.00;99.90
27896;DHT22;15241;48.374;10.876;2023-08-12T09:08:36;27.10;99.90
27896;DHT22;15241;48.374;10.876;2023-08-12T09:13:55;27.30;99.90
27896;DHT22;15241;48.374;10.876;2023-08-12T09:19:13;27.40;99.90
27896;DHT22;15241;48.374;10.876;2023-08-12T09:24:30;27.60;99.90
27896;DHT22;15241;48.374;10.876;2023-08-12T09:29:48;28.00;99.90
27896;DHT22;15241;48.374;10.876;2023-08-12T09:35:10;28.40;99.90
27896;DHT22;15241;48.374;10.876;2023-08-12T09:40:25;28.90;99.90
27896;DHT22;15241;48.374;10.876;2023-08-12T09:45:44;29.40;99.90
27896;DHT22;15241;48.374;10.876;2023-08-12T09:51:02;29.70;99.90
27896;DHT22;15241;48.374;10.876;2023-08-12T09:56:22;29.90;99.90
27896;DHT22;15241;48.374;10.876;2023-08-12T10:01:41;30.30;99.90
27896;DHT22;15241;48.374;10.876;2023-08-12T10:07:01;30.90;99.90
27896;DHT22;15241;48.374;10.876;2023-08-12T10:12:18;30.60;99.90
27896;DHT22;15241;48.374;10.876;2023-08-12T10:17:37;30.70;99.90
27896;DHT22;15241;48.374;10.876;2023-08-12T10:22:56;31.00;99.90
27896;DHT22;15241;48.374;10.876;2023-08-12T10:28:14;31.20;99.90
27896;DHT22;15241;48.374;10.876;2023-08-12T10:33:35;30.80;99.90
27896;DHT22;15241;48.374;10.876;2023-08-12T10:38:53;31.10;99.90
27896;DHT22;15241;48.374;10.876;2023-08-12T10:44:10;31.20;99.90
27896;DHT22;15241;48.374;10.876;2023-08-12T10:49:28;31.70;99.90
27896;DHT22;15241;48.374;10.876;2023-08-12T10:54:47;31.80;99.90
27896;DHT22;15241;48.374;10.876;2023-08-12T11:00:07;32.30;99.90
27896;DHT22;15241;48.374;10.876;2023-08-12T11:05:35;32.30;99.90
27896;DHT22;15241;48.374;10.876;2023-08-12T11:10:44;32.20;99.90
27896;DHT22;15241;48.374;10.876;2023-08-12T11:16:09;32.10;99.90
27896;DHT22;15241;48.374;10.876;2023-08-12T11:21:27;32.20;99.90
27896;DHT22;15241;48.374;10.876;2023-08-12T11:26:46;32.40;99.90
27896;DHT22;15241;48.374;10.876;2023-08-12T11:32:04;33.20;99.90
27896;DHT22;15241;48.374;10.876;2023-08-12T11:37:22;33.80;99.90
27896;DHT22;15241;48.374;10.876;2023-08-12T11:42:41;34.60;99.90
27896;DHT22;15241;48.374;10.876;2023-08-12T11:47:58;35.00;99.90
27896;DHT22;15241;48.374;10.876;2023-08-12T11:53:16;34.70;99.90
27896;DHT22;15241;48.374;10.876;2023-08-12T11:58:38;34.10;99.90
27896;DHT22;15241;48.374;10.876;2023-08-12T12:03:56;33.90;99.90
27896;DHT22;15241;48.374;10.876;2023-08-12T12:09:13;33.60;99.90
27896;DHT22;15241;48.374;10.876;2023-08-12T12:14:31;33.30;99.90
27896;DHT22;15241;48.374;10.876;2023-08-12T12:19:54;33.20;99.90
27896;DHT22;15241;48.374;10.876;2023-08-12T12:25:13;33.10;99.90
27896;DHT22;15241;48.374;10.876;2023-08-12T12:30:30;33.20;99.90
27896;DHT22;15241;48.374;10.876;2023-08-12T12:35:48;33.30;99.90
27896;DHT22;15241;48.374;10.876;2023-08-12T12:41:05;33.40;99.90
27896;DHT22;15241;48.374;10.876;2023-08-12T12:46:23;33.90;99.90
27896;DHT22;15241;48.374;10.876;2023-08-12T12:51:40;34.30;99.90
27896;DHT22;15241;48.374;10.876;2023-08-12T12:56:58;35.00;99.90
27896;DHT22;15241;48.374;10.876;2023-08-12T13:02:16;35.30;99.90
27896;DHT22;15241;48.374;10.876;2023-08-12T13:07:34;34.70;99.90
27896;DHT22;15241;48.374;10.876;2023-08-12T13:12:52;34.60;99.70
27896;DHT22;15241;48.374;10.876;2023-08-12T13:18:09;35.20;98.50
27896;DHT22;15241;48.374;10.876;2023-08-12T13:23:27;35.40;96.60
27896;DHT22;15241;48.374;10.876;2023-08-12T13:28:45;36.20;96.70
27896;DHT22;15241;48.374;10.876;2023-08-12T13:34:02;36.40;96.20
27896;DHT22;15241;48.374;10.876;2023-08-12T13:39:19;36.30;94.70
27896;DHT22;15241;48.374;10.876;2023-08-12T13:44:37;35.90;95.40
27896;DHT22;15241;48.374;10.876;2023-08-12T13:49:54;35.80;96.30
27896;DHT22;15241;48.374;10.876;2023-08-12T13:55:11;35.40;96.30
27896;DHT22;15241;48.374;10.876;2023-08-12T14:00:28;34.90;97.00
27896;DHT22;15241;48.374;10.876;2023-08-12T14:05:46;34.40;97.20
27896;DHT22;15241;48.374;10.876;2023-08-12T14:11:04;34.00;98.00
27896;DHT22;15241;48.374;10.876;2023-08-12T14:16:21;33.60;99.50
27896;DHT22;15241;48.374;10.876;2023-08-12T14:21:38;33.00;99.90
27896;DHT22;15241;48.374;10.876;2023-08-12T14:26:56;32.20;99.90
27896;DHT22;15241;48.374;10.876;2023-08-12T14:32:13;31.90;99.90
27896;DHT22;15241;48.374;10.876;2023-08-12T14:37:30;31.50;99.90
27896;DHT22;15241;48.374;10.876;2023-08-12T14:42:48;31.50;99.90
27896;DHT22;15241;48.374;10.876;2023-08-12T14:48:06;31.80;99.90
27896;DHT22;15241;48.374;10.876;2023-08-12T14:53:25;32.20;99.90
27896;DHT22;15241;48.374;10.876;2023-08-12T14:58:43;32.20;99.90
27896;DHT22;15241;48.374;10.876;2023-08-12T15:04:00;32.50;99.90
27896;DHT22;15241;48.374;10.876;2023-08-12T15:09:18;32.30;99.90
27896;DHT22;15241;48.374;10.876;2023-08-12T15:14:35;32.00;99.90
27896;DHT22;15241;48.374;10.876;2023-08-12T15:19:53;32.40;99.90
27896;DHT22;15241;48.374;10.876;2023-08-12T15:25:11;32.60;99.90
27896;DHT22;15241;48.374;10.876;2023-08-12T15:30:29;33.10;99.90
27896;DHT22;15241;48.374;10.876;2023-08-12T15:35:45;32.90;99.90
27896;DHT22;15241;48.374;10.876;2023-08-12T15:41:06;33.20;99.90
27896;DHT22;15241;48.374;10.876;2023-08-12T15:46:24;33.40;99.90
27896;DHT22;15241;48.374;10.876;2023-08-12T15:51:42;33.50;99.90
27896;DHT22;15241;48.374;10.876;2023-08-12T15:56:59;33.40;99.90
27896;DHT22;15241;48.374;10.876;2023-08-12T16:02:16;33.00;99.90
27896;DHT22;15241;48.374;10.876;2023-08-12T16:07:33;32.90;99.90
27896;DHT22;15241;48.374;10.876;2023-08-12T16:12:51;32.80;99.90
27896;DHT22;15241;48.374;10.876;2023-08-12T16:18:08;33.00;99.90
27896;DHT22;15241;48.374;10.876;2023-08-12T16:23:26;32.80;99.90
27896;DHT22;15241;48.374;10.876;2023-08-12T16:28:43;32.50;99.90
27896;DHT22;15241;48.374;10.876;2023-08-12T16:34:01;32.20;99.90
27896;DHT22;15241;48.374;10.876;2023-08-12T16:39:18;31.80;99.90
27896;DHT22;15241;48.374;10.876;2023-08-12T16:44:36;31.50;99.90
27896;DHT22;15241;48.374;10.876;2023-08-12T16:49:53;31.30;99.90
27896;DHT22;15241;48.374;10.876;2023-08-12T16:55:10;31.00;99.90
27896;DHT22;15241;48.374;10.876;2023-08-12T17:00:28;30.70;99.90
27896;DHT22;15241;48.374;10.876;2023-08-12T17:05:46;30.40;99.90
27896;DHT22;15241;48.374;10.876;2023-08-12T17:11:05;29.90;99.90
27896;DHT22;15241;48.374;10.876;2023-08-12T17:16:23;29.70;99.90
27896;DHT22;15241;48.374;10.876;2023-08-12T17:21:40;29.50;99.90
27896;DHT22;15241;48.374;10.876;2023-08-12T17:26:58;29.30;99.90
27896;DHT22;15241;48.374;10.876;2023-08-12T17:32:15;28.90;99.90
27896;DHT22;15241;48.374;10.876;2023-08-12T17:37:37;28.80;99.90
27896;DHT22;15241;48.374;10.876;2023-08-12T17:42:54;28.60;99.90
27896;DHT22;15241;48.374;10.876;2023-08-12T17:48:12;28.30;99.90
27896;DHT22;15241;48.374;10.876;2023-08-12T17:53:29;28.10;99.90
27896;DHT22;15241;48.374;10.876;2023-08-12T17:58:47;28.00;99.90
27896;DHT22;15241;48.374;10.876;2023-08-12T18:04:05;27.80;99.90
27896;DHT22;15241;48.374;10.876;2023-08-12T18:09:23;27.70;99.90
27896;DHT22;15241;48.374;10.876;2023-08-12T18:14:41;27.60;99.90
27896;DHT22;15241;48.374;10.876;2023-08-12T18:19:58;27.40;99.90
27896;DHT22;15241;48.374;10.876;2023-08-12T18:25:16;27.10;99.90
27896;DHT22;15241;48.374;10.876;2023-08-12T18:30:33;27.00;99.90
27896;DHT22;15241;48.374;10.876;2023-08-12T18:35:51;26.90;99.90
27896;DHT22;15241;48.374;10.876;2023-08-12T18:41:08;26.80;99.90
27896;DHT22;15241;48.374;10.876;2023-08-12T18:46:26;26.70;99.90
27896;DHT22;15241;48.374;10.876;2023-08-12T18:51:44;26.60;99.90
27896;DHT22;15241;48.374;10.876;2023-08-12T18:57:02;26.50;99.90
27896;DHT22;15241;48.374;10.876;2023-08-12T19:02:19;26.30;99.90
27896;DHT22;15241;48.374;10.876;2023-08-12T19:07:37;26.20;99.90
27896;DHT22;15241;48.374;10.876;2023-08-12T19:12:54;26.20;99.90
27896;DHT22;15241;48.374;10.876;2023-08-12T19:18:11;26.10;99.90
27896;DHT22;15241;48.374;10.876;2023-08-12T19:23:29;26.00;99.90
27896;DHT22;15241;48.374;10.876;2023-08-12T19:28:46;25.90;99.90
27896;DHT22;15241;48.374;10.876;2023-08-12T19:34:04;25.80;99.90
27896;DHT22;15241;48.374;10.876;2023-08-12T19:39:22;25.80;99.90
27896;DHT22;15241;48.374;10.876;2023-08-12T19:44:40;25.70;99.90
27896;DHT22;15241;48.374;10.876;2023-08-12T19:49:58;25.60;99.90
27896;DHT22;15241;48.374;10.876;2023-08-12T19:55:15;25.60;99.90
27896;DHT22;15241;48.374;10.876;2023-08-12T20:00:32;25.60;99.90
27896;DHT22;15241;48.374;10.876;2023-08-12T20:05:50;25.40;99.90
27896;DHT22;15241;48.374;10.876;2023-08-12T20:11:08;25.40;99.90
27896;DHT22;15241;48.374;10.876;2023-08-12T20:16:25;25.40;99.90
27896;DHT22;15241;48.374;10.876;2023-08-12T20:21:43;25.20;99.90
27896;DHT22;15241;48.374;10.876;2023-08-12T20:27:01;25.20;99.90
27896;DHT22;15241;48.374;10.876;2023-08-12T20:32:18;25.00;99.90
27896;DHT22;15241;48.374;10.876;2023-08-12T20:37:35;24.70;99.90
27896;DHT22;15241;48.374;10.876;2023-08-12T20:42:53;24.70;99.90
27896;DHT22;15241;48.374;10.876;2023-08-12T20:48:11;24.60;99.90
27896;DHT22;15241;48.374;10.876;2023-08-12T20:53:28;24.60;99.90
27896;DHT22;15241;48.374;10.876;2023-08-12T20:58:46;24.50;99.90
27896;DHT22;15241;48.374;10.876;2023-08-12T21:04:05;24.40;99.90
27896;DHT22;15241;48.374;10.876;2023-08-12T21:09:23;24.30;99.90
27896;DHT22;15241;48.374;10.876;2023-08-12T21:14:41;24.20;99.90
27896;DHT22;15241;48.374;10.876;2023-08-12T21:19:58;24.10;99.90
27896;DHT22;15241;48.374;10.876;2023-08-12T21:25:17;24.00;99.90
27896;DHT22;15241;48.374;10.876;2023-08-12T21:30:35;23.90;99.90
27896;DHT22;15241;48.374;10.876;2023-08-12T21:35:53;23.80;99.90
27896;DHT22;15241;48.374;10.876;2023-08-12T21:41:10;23.70;99.90
27896;DHT22;15241;48.374;10.876;2023-08-12T21:46:28;23.60;99.90
27896;DHT22;15241;48.374;10.876;2023-08-12T21:51:45;23.50;99.90
27896;DHT22;15241;48.374;10.876;2023-08-12T21:57:03;23.50;99.90
27896;DHT22;15241;48.374;10.876;2023-08-12T22:02:24;23.50;99.90
27896;DHT22;15241;48.374;10.876;2023-08-12T22:07:42;23.40;99.90
27896;DHT22;15241;48.374;10.876;2023-08-12T22:13:00;23.30;99.90
27896;DHT22;15241;48.374;10.876;2023-08-12T22:18:17;23.20;99.90
27896;DHT22;15241;48.374;10.876;2023-08-12T22:23:34;23.10;99.90
27896;DHT22;15241;48.374;10.876;2023-08-12T22:28:52;23.10;99.90
27896;DHT22;15241;48.374;10.876;2023-08-12T22:34:09;23.00;99.90
27896;DHT22;15241;48.374;10.876;2023-08-12T22:39:27;22.90;99.90
27896;DHT22;15241;48.374;10.876;2023-08-12T22:44:45;22.80;99.90
27896;DHT22;15241;48.374;10.876;2023-08-12T22:50:02;22.80;99.90
27896;DHT22;15241;48.374;10.876;2023-08-12T22:55:20;22.70;99.90
27896;DHT22;15241;48.374;10.876;2023-08-12T23:00:37;22.70;99.90
27896;DHT22;15241;48.374;10.876;2023-08-12T23:05:55;22.70;99.90
27896;DHT22;15241;48.374;10.876;2023-08-12T23:11:12;22.60;99.90
27896;DHT22;15241;48.374;10.876;2023-08-12T23:16:29;22.60;99.90
27896;DHT22;15241;48.374;10.876;2023-08-12T23:21:47;22.50;99.90
27896;DHT22;15241;48.374;10.876;2023-08-12T23:27:05;22.50;99.90
27896;DHT22;15241;48.374;10.876;2023-08-12T23:32:23;22.50;99.90
27896;DHT22;15241;48.374;10.876;2023-08-12T23:37:41;22.40;99.90
27896;DHT22;15241;48.374;10.876;2023-08-12T23:42:58;22.40;99.90
27896;DHT22;15241;48.374;10.876;2023-08-12T23:48:16;22.30;99.90
27896;DHT22;15241;48.374;10.876;2023-08-12T23:53:33;22.40;99.90
27896;DHT22;15241;48.374;10.876;2023-08-12T23:58:51;22.30;99.90
